»·PEaware :: N1SC KLAX-KSNA

N1SC :: KLAX-KSNA

FLIGHT INFORMATION

Flight Status: Arrived
Operator: Privately registered:
United States
More flights under this callsign
Pilot: Chris C. (10181)
Aircraft: CESSNA 172 SKYHAWK
(C172)
More flights by this aircraft type
Origin: KLAX Los Angeles Intl
United States
Destination: KSNA John Wayne-Orange Co
United States
More flights between these airports :: More routes between these airports
Route: SLI8 SLI
File this flight plan on PilotEdge
Remarks: I-6 Rating
Altitude:
(Current/Filed)
4,000ft
Speed:
(Current/Filed)
120kts
Departed: 05-Oct-18 05:20 PM
Arrived: 05-Oct-18 06:03 PM
Distance/Time
Traveled:
31nm/0:43
Distance/Time
To Go:
Arrived

Flight Plot

Page will automatically refresh every two minutes.

Flight plan parsing failed; only flown route is shown


Map Options




Map Legend


Flown Route
Filed Route
Departure Airport
Arrival Airport
Navaid (VOR, NDB)
Fix

Horizontal Profiles

Position Reports

Time Latitude Longitude Heading Altitude Ground
Speed
05-Oct-18 17:07 33.934137 -118.395574 175 107ft 0kts
05-Oct-18 17:08 33.934137 -118.395574 175 107ft 0kts
05-Oct-18 17:09 33.934137 -118.395574 175 107ft 0kts
05-Oct-18 17:10 33.934137 -118.395574 175 107ft 0kts
05-Oct-18 17:11 33.934137 -118.395574 175 107ft 0kts
05-Oct-18 17:12 33.934137 -118.395574 175 107ft 0kts
05-Oct-18 17:13 33.934137 -118.395574 175 107ft 0kts
05-Oct-18 17:14 33.934137 -118.395574 175 107ft 0kts
05-Oct-18 17:15 33.934137 -118.395574 175 107ft 0kts
05-Oct-18 17:16 33.934137 -118.395574 175 107ft 0kts
05-Oct-18 17:17 33.934137 -118.395574 175 107ft 0kts
05-Oct-18 17:18 33.935020 -118.393440 76 107ft 18kts
05-Oct-18 17:19 33.935989 -118.383994 85 107ft 11kts
05-Oct-18 17:20 33.936387 -118.382744 355 107ft 0kts
05-Oct-18 17:21 33.937229 -118.383924 261 107ft 33kts
05-Oct-18 17:22 33.934736 -118.407333 259 704ft 76kts
05-Oct-18 17:23 33.932142 -118.432680 260 1473ft 77kts
05-Oct-18 17:24 33.920110 -118.451255 212 2185ft 78kts
05-Oct-18 17:25 33.901606 -118.464858 214 2867ft 79kts
05-Oct-18 17:26 33.882904 -118.478894 212 3515ft 81kts
05-Oct-18 17:27 33.862882 -118.492803 215 3980ft 97kts
05-Oct-18 17:28 33.836433 -118.512542 215 3960ft 121kts
05-Oct-18 17:29 33.805945 -118.507732 141 3972ft 133kts
05-Oct-18 17:30 33.779255 -118.478348 140 4015ft 123kts
05-Oct-18 17:31 33.754732 -118.451116 140 4017ft 121kts
05-Oct-18 17:32 33.728999 -118.422641 140 4019ft 129kts
05-Oct-18 17:33 33.702566 -118.393396 140 4021ft 129kts
05-Oct-18 17:34 33.677095 -118.362912 114 4017ft 132kts
05-Oct-18 17:35 33.688202 -118.323030 59 4017ft 129kts
05-Oct-18 17:36 33.705392 -118.284979 57 4015ft 129kts
05-Oct-18 17:37 33.723364 -118.247251 57 4012ft 130kts
05-Oct-18 17:38 33.740950 -118.209219 67 4009ft 131kts
05-Oct-18 17:39 33.754492 -118.168407 67 4006ft 131kts
05-Oct-18 17:40 33.768149 -118.127816 74 4003ft 131kts
05-Oct-18 17:41 33.776269 -118.085300 78 4000ft 131kts
05-Oct-18 17:42 33.786839 -118.043492 61 3999ft 131kts
05-Oct-18 17:43 33.804266 -118.005166 63 4001ft 130kts
05-Oct-18 17:44 33.818992 -117.965466 66 4002ft 130kts
05-Oct-18 17:45 33.833481 -117.925712 66 4002ft 127kts
05-Oct-18 17:46 33.847287 -117.887787 66 4003ft 122kts
05-Oct-18 17:47 33.861219 -117.850754 63 4003ft 121kts
05-Oct-18 17:48 33.876715 -117.814696 61 4002ft 122kts
05-Oct-18 17:49 33.892221 -117.778293 61 4001ft 122kts
05-Oct-18 17:50 33.907408 -117.741844 61 4000ft 122kts
05-Oct-18 17:51 33.926692 -117.712459 6 3964ft 115kts
05-Oct-18 17:52 33.956151 -117.698301 321 3475ft 105kts
05-Oct-18 17:53 33.937699 -117.703944 192 3494ft 106kts
05-Oct-18 17:54 33.909708 -117.716285 217 3514ft 107kts
05-Oct-18 17:55 33.890136 -117.740735 192 3562ft 110kts
05-Oct-18 17:56 33.859881 -117.748543 209 3478ft 112kts
05-Oct-18 17:57 33.832490 -117.766591 217 3400ft 113kts
05-Oct-18 17:58 33.805769 -117.784929 207 2914ft 112kts
05-Oct-18 17:59 33.778370 -117.802791 212 2224ft 113kts
05-Oct-18 18:00 33.753367 -117.819793 209 1716ft 95kts
05-Oct-18 18:01 33.731618 -117.833017 207 1175ft 80kts
05-Oct-18 18:02 33.713248 -117.845064 212 776ft 73kts
05-Oct-18 18:03 33.696449 -117.855618 208 449ft 66kts
05-Oct-18 18:04 33.680361 -117.865821 211 63ft 58kts
05-Oct-18 18:05 33.675568 -117.870419 209 60ft 17kts

Navigation Log

Ident Type
Flight plan parsing failed, navigation log unavailable